createdAt,value
2023-03-05T00:01:16.487Z,22.63
2023-03-05T00:03:44.809Z,22.62
2023-03-05T00:06:12.956Z,22.60
2023-03-05T00:08:41.080Z,22.60
2023-03-05T00:11:09.988Z,22.62
2023-03-05T00:13:38.155Z,22.62
2023-03-05T00:16:07.058Z,22.61
2023-03-05T00:18:36.753Z,22.61
2023-03-05T00:21:05.300Z,22.59
2023-03-05T00:23:33.450Z,22.60
2023-03-05T00:26:03.708Z,22.59
2023-03-05T00:28:31.799Z,22.59
2023-03-05T00:31:01.346Z,22.59
2023-03-05T00:33:29.516Z,22.58
2023-03-05T00:36:01.853Z,22.56
2023-03-05T00:38:30.072Z,22.58
2023-03-05T00:40:58.305Z,22.56
2023-03-05T00:43:26.859Z,22.57
2023-03-05T00:45:54.983Z,22.58
2023-03-05T00:48:23.449Z,22.56
2023-03-05T00:50:51.532Z,22.55
2023-03-05T00:53:21.252Z,22.55
2023-03-05T00:55:49.404Z,22.56
2023-03-05T00:58:17.468Z,22.56
2023-03-05T01:00:45.568Z,22.55
2023-03-05T01:03:13.748Z,22.53
2023-03-05T01:05:42.025Z,22.52
2023-03-05T01:08:10.122Z,22.53
2023-03-05T01:10:39.591Z,22.55
2023-03-05T01:13:07.693Z,22.54
2023-03-05T01:15:35.770Z,22.53
2023-03-05T01:18:03.948Z,22.51
2023-03-05T01:20:32.056Z,22.52
2023-03-05T01:23:01.868Z,22.53
2023-03-05T01:25:30.018Z,22.52
2023-03-05T01:27:59.522Z,22.51
2023-03-05T01:30:27.600Z,22.53
2023-03-05T01:32:56.551Z,22.54
2023-03-05T01:35:25.503Z,22.52
2023-03-05T01:37:53.663Z,22.51
2023-03-05T01:40:22.614Z,22.52
2023-03-05T01:42:51.149Z,22.52
2023-03-05T01:45:20.643Z,22.51
2023-03-05T01:47:49.087Z,22.51
2023-03-05T01:50:18.619Z,22.53
2023-03-05T01:52:47.988Z,22.53
2023-03-05T01:55:17.579Z,22.51
2023-03-05T01:57:46.907Z,22.52
2023-03-05T02:00:16.185Z,22.51
2023-03-05T02:02:46.053Z,22.50
2023-03-05T02:05:16.139Z,22.50
2023-03-05T02:07:45.274Z,22.50
2023-03-05T02:10:18.143Z,22.50
2023-03-05T02:12:46.285Z,22.49
2023-03-05T02:15:14.361Z,22.49
2023-03-05T02:17:42.495Z,22.48
2023-03-05T02:20:13.827Z,22.49
2023-03-05T02:22:43.326Z,22.50
2023-03-05T02:25:18.540Z,22.47
2023-03-05T02:27:51.772Z,22.47
2023-03-05T02:30:20.041Z,22.47
2023-03-05T02:32:48.265Z,22.45
2023-03-05T02:35:16.534Z,22.46
2023-03-05T02:37:46.199Z,22.45
2023-03-05T02:40:15.088Z,22.45
2023-03-05T02:42:43.510Z,22.45
2023-03-05T02:45:13.509Z,22.45
2023-03-05T02:47:41.754Z,22.45
2023-03-05T02:50:11.410Z,22.45
2023-03-05T02:52:40.420Z,22.43
2023-03-05T02:55:14.455Z,22.43
2023-03-05T02:57:43.291Z,22.42
2023-03-05T03:00:12.789Z,22.43
2023-03-05T03:02:41.079Z,22.43
2023-03-05T03:05:10.315Z,22.42
2023-03-05T03:07:38.392Z,22.41
2023-03-05T03:10:07.370Z,22.42
2023-03-05T03:12:39.504Z,22.41
2023-03-05T03:15:09.287Z,22.42
2023-03-05T03:17:37.663Z,22.42
2023-03-05T03:20:06.534Z,22.41
2023-03-05T03:22:34.643Z,22.41
2023-03-05T03:25:02.777Z,22.40
2023-03-05T03:27:30.908Z,22.41
2023-03-05T03:30:02.663Z,22.40
2023-03-05T03:32:30.854Z,22.39
2023-03-05T03:34:59.006Z,22.40
2023-03-05T03:37:27.124Z,22.40
2023-03-05T03:39:55.235Z,22.39
2023-03-05T03:42:23.898Z,22.40
2023-03-05T03:44:52.090Z,22.39
2023-03-05T03:47:21.674Z,22.38
2023-03-05T03:49:49.782Z,22.37
2023-03-05T03:52:17.885Z,22.37
2023-03-05T03:54:46.018Z,22.38
2023-03-05T03:57:14.119Z,22.37
2023-03-05T03:59:42.399Z,22.37
2023-03-05T04:02:10.494Z,22.35
2023-03-05T04:04:40.080Z,22.34
2023-03-05T04:07:08.284Z,22.35
2023-03-05T04:09:36.344Z,22.33
2023-03-05T04:12:04.644Z,22.33
2023-03-05T04:14:32.708Z,22.35
2023-03-05T04:17:00.871Z,22.35
2023-03-05T04:19:30.748Z,22.33
2023-03-05T04:22:00.508Z,22.34
2023-03-05T04:24:28.615Z,22.33
2023-03-05T04:26:56.848Z,22.34
2023-03-05T04:29:24.908Z,22.33
2023-03-05T04:31:53.017Z,22.33
2023-03-05T04:34:21.093Z,22.32
2023-03-05T04:36:49.202Z,22.33
2023-03-05T04:39:20.978Z,22.32
2023-03-05T04:41:49.183Z,22.32
2023-03-05T04:44:17.800Z,22.31
2023-03-05T04:46:46.150Z,22.31
2023-03-05T04:49:14.333Z,22.31
2023-03-05T04:51:42.439Z,22.30
2023-03-05T04:54:10.588Z,22.29
2023-03-05T04:56:40.070Z,22.30
2023-03-05T04:59:08.183Z,22.30
2023-03-05T05:01:36.245Z,22.29
2023-03-05T05:04:04.496Z,22.29
2023-03-05T05:06:32.600Z,22.29
2023-03-05T05:09:00.660Z,22.28
2023-03-05T05:11:28.738Z,22.28
2023-03-05T05:13:58.270Z,22.28
2023-03-05T05:16:26.434Z,22.29
2023-03-05T05:18:54.613Z,22.26
2023-03-05T05:21:22.722Z,22.26
2023-03-05T05:23:50.826Z,22.27
2023-03-05T05:26:18.915Z,22.27
2023-03-05T05:28:47.172Z,22.27
2023-03-05T05:31:17.186Z,22.28
2023-03-05T05:33:46.333Z,22.26
2023-03-05T05:36:16.318Z,22.26
2023-03-05T05:38:44.393Z,22.26
2023-03-05T05:41:13.344Z,22.26
2023-03-05T05:43:41.526Z,22.26
2023-03-05T05:46:12.226Z,22.25
2023-03-05T05:48:41.896Z,22.26
2023-03-05T05:51:12.120Z,22.24
2023-03-05T05:53:40.358Z,22.25
2023-03-05T05:56:09.244Z,22.25
2023-03-05T05:58:37.507Z,22.25
2023-03-05T06:01:13.332Z,22.24
2023-03-05T06:03:42.846Z,22.24
2023-03-05T06:06:11.961Z,22.24
2023-03-05T06:08:40.135Z,22.24
2023-03-05T06:11:08.396Z,22.24
2023-03-05T06:13:36.563Z,22.24
2023-03-05T06:16:05.774Z,22.25
2023-03-05T06:18:34.408Z,22.24
2023-03-05T06:21:04.847Z,22.25
2023-03-05T06:23:32.978Z,22.25
2023-03-05T06:26:01.265Z,22.24
2023-03-05T06:28:29.491Z,22.26
2023-03-05T06:31:03.916Z,22.26
2023-03-05T06:33:32.035Z,22.26
2023-03-05T06:36:00.222Z,22.26
2023-03-05T06:38:30.192Z,22.26
2023-03-05T06:41:02.020Z,22.26
2023-03-05T06:43:30.112Z,22.28
2023-03-05T06:46:04.893Z,22.27
2023-03-05T06:48:33.443Z,22.27
2023-03-05T06:51:01.880Z,22.28
2023-03-05T06:53:31.340Z,22.29
2023-03-05T06:56:02.104Z,22.28
2023-03-05T06:58:30.242Z,22.29
2023-03-05T07:00:58.428Z,22.29
2023-03-05T07:03:26.528Z,22.30
2023-03-05T07:05:54.692Z,22.32
2023-03-05T07:08:22.769Z,22.33
2023-03-05T07:10:52.268Z,22.32
2023-03-05T07:13:20.370Z,22.33
2023-03-05T07:15:48.593Z,22.32
2023-03-05T07:18:16.645Z,22.32
2023-03-05T07:20:44.784Z,22.32
2023-03-05T07:23:12.860Z,22.33
2023-03-05T07:25:41.038Z,22.33
2023-03-05T07:28:10.689Z,22.33
2023-03-05T07:30:38.960Z,22.37
2023-03-05T07:33:07.069Z,22.36
2023-03-05T07:35:35.175Z,22.36
2023-03-05T07:38:03.321Z,22.38
2023-03-05T07:40:31.365Z,22.38
2023-03-05T07:42:59.468Z,22.38
2023-03-05T07:45:33.306Z,22.37
2023-03-05T07:48:01.418Z,22.36
2023-03-05T07:50:29.551Z,22.36
2023-03-05T07:52:57.755Z,22.36
2023-03-05T07:55:25.944Z,22.38
2023-03-05T07:57:54.263Z,22.38
2023-03-05T08:00:22.675Z,22.39
2023-03-05T08:02:52.178Z,22.40
2023-03-05T08:05:20.459Z,22.41
2023-03-05T08:07:48.621Z,22.42
2023-03-05T08:10:16.719Z,22.45
2023-03-05T08:12:44.828Z,22.47
2023-03-05T08:15:13.236Z,22.49
2023-03-05T08:17:41.376Z,22.48
2023-03-05T08:20:12.397Z,22.47
2023-03-05T08:22:40.486Z,22.46
2023-03-05T08:25:09.218Z,22.45
2023-03-05T08:27:40.056Z,22.45
2023-03-05T08:30:09.748Z,22.47
2023-03-05T08:32:37.858Z,22.46
2023-03-05T08:35:06.978Z,22.46
2023-03-05T08:37:36.434Z,22.45
2023-03-05T08:40:05.224Z,22.46
2023-03-05T08:42:33.275Z,22.46
2023-03-05T08:45:01.522Z,22.46
2023-03-05T08:47:29.605Z,22.49
2023-03-05T08:49:58.564Z,22.51
2023-03-05T08:52:27.347Z,22.52
2023-03-05T08:54:57.112Z,22.54
2023-03-05T08:57:25.182Z,22.56
2023-03-05T08:59:53.276Z,22.58
2023-03-05T09:02:21.371Z,22.60
2023-03-05T09:04:49.482Z,22.62
2023-03-05T09:07:17.698Z,22.64
2023-03-05T09:09:45.812Z,22.67
2023-03-05T09:12:16.039Z,22.69
2023-03-05T09:14:44.170Z,22.70
2023-03-05T09:17:12.249Z,22.73
2023-03-05T09:19:40.347Z,22.74
2023-03-05T09:22:08.413Z,22.77
2023-03-05T09:24:36.526Z,22.80
2023-03-05T09:27:04.718Z,22.83
2023-03-05T09:29:34.195Z,22.83
2023-03-05T09:32:02.410Z,22.83
2023-03-05T09:34:30.596Z,22.75
2023-03-05T09:36:58.788Z,22.66
2023-03-05T09:39:27.008Z,22.57
2023-03-05T09:42:12.931Z,22.50
2023-03-05T09:44:46.655Z,22.43
2023-03-05T09:47:23.310Z,22.31
2023-03-05T09:49:54.452Z,22.23
2023-03-05T09:52:23.378Z,22.25
2023-03-05T09:54:54.657Z,22.29
2023-03-05T09:57:24.117Z,22.33
2023-03-05T09:59:55.213Z,22.36
2023-03-05T10:02:25.776Z,22.40
2023-03-05T10:04:56.025Z,22.42
2023-03-05T10:07:27.197Z,22.42
2023-03-05T10:09:57.200Z,22.42
2023-03-05T10:12:28.810Z,22.43
2023-03-05T10:15:00.637Z,22.44
2023-03-05T10:17:47.323Z,22.45
2023-03-05T10:20:32.200Z,22.48
2023-03-05T10:23:11.395Z,22.49
2023-03-05T10:25:51.452Z,22.49
2023-03-05T10:28:21.434Z,22.51
2023-03-05T10:31:03.584Z,22.51
2023-03-05T10:33:34.261Z,22.52
2023-03-05T10:36:26.332Z,22.53
2023-03-05T10:39:05.182Z,22.55
2023-03-05T10:41:35.721Z,22.54
2023-03-05T10:44:06.212Z,22.56
2023-03-05T10:46:36.643Z,22.56
2023-03-05T10:49:07.637Z,22.57
2023-03-05T10:51:37.652Z,22.58
2023-03-05T10:54:10.344Z,22.58
2023-03-05T10:56:38.542Z,22.59
2023-03-05T10:59:06.588Z,22.60
2023-03-05T11:01:37.434Z,22.61
2023-03-05T11:04:05.972Z,22.60
2023-03-05T11:06:36.318Z,22.61
2023-03-05T11:09:18.340Z,22.61
2023-03-05T11:11:46.527Z,22.62
2023-03-05T11:14:31.174Z,22.62
2023-03-05T11:17:00.736Z,22.63
2023-03-05T11:19:32.856Z,22.64
2023-03-05T11:22:10.861Z,22.64
2023-03-05T11:24:39.006Z,22.63
2023-03-05T11:27:25.512Z,22.63
2023-03-05T11:29:53.679Z,22.64
2023-03-05T11:32:25.423Z,22.65
2023-03-05T11:34:53.759Z,22.64
2023-03-05T11:37:24.606Z,22.64
2023-03-05T11:40:08.471Z,22.66
2023-03-05T11:42:36.770Z,22.65
2023-03-05T11:45:05.570Z,22.66
2023-03-05T11:47:37.659Z,22.65
2023-03-05T11:50:13.124Z,22.66
2023-03-05T11:52:43.438Z,22.64
2023-03-05T11:55:14.255Z,22.62
2023-03-05T11:57:44.225Z,22.63
2023-03-05T12:00:16.453Z,22.64
2023-03-05T12:02:53.641Z,22.65
2023-03-05T12:05:21.844Z,22.64
2023-03-05T12:07:51.481Z,22.64
2023-03-05T12:10:21.033Z,22.65
2023-03-05T12:12:50.779Z,22.66
2023-03-05T12:15:40.116Z,22.65
2023-03-05T12:18:29.700Z,22.65
2023-03-05T12:21:02.732Z,22.65
2023-03-05T12:23:31.082Z,22.65
2023-03-05T12:26:01.332Z,22.68
2023-03-05T12:28:57.121Z,22.68
2023-03-05T12:31:39.524Z,22.69
2023-03-05T12:34:49.212Z,22.70
2023-03-05T12:37:50.591Z,22.70
2023-03-05T12:40:23.065Z,22.68
2023-03-05T12:42:56.035Z,22.68
2023-03-05T12:45:29.202Z,22.68
2023-03-05T12:48:33.484Z,22.69
2023-03-05T12:51:03.231Z,22.70
2023-03-05T12:53:31.568Z,22.69
2023-03-05T12:56:04.085Z,22.72
2023-03-05T12:58:38.735Z,22.69
2023-03-05T13:01:13.600Z,22.70
2023-03-05T13:03:45.098Z,22.70
2023-03-05T13:06:25.893Z,22.72
2023-03-05T13:08:58.182Z,22.72
2023-03-05T13:11:26.316Z,22.71
2023-03-05T13:13:54.466Z,22.73
2023-03-05T13:16:24.583Z,22.73
2023-03-05T13:18:52.937Z,22.72
2023-03-05T13:21:21.794Z,22.73
2023-03-05T13:23:57.786Z,22.74
2023-03-05T13:26:26.935Z,22.74
2023-03-05T13:29:08.550Z,22.75
2023-03-05T13:31:36.976Z,22.74
2023-03-05T13:34:11.403Z,22.75
2023-03-05T13:36:39.552Z,22.75
2023-03-05T13:39:09.033Z,22.75
2023-03-05T13:41:37.127Z,22.76
2023-03-05T13:44:05.295Z,22.77
2023-03-05T13:46:34.317Z,22.76
2023-03-05T13:49:18.331Z,22.76
2023-03-05T13:51:47.373Z,22.77
2023-03-05T13:54:17.834Z,22.77
2023-03-05T13:56:53.685Z,22.77
2023-03-05T13:59:22.673Z,22.77
2023-03-05T14:01:50.751Z,22.77
2023-03-05T14:04:21.766Z,22.77
2023-03-05T14:06:50.615Z,22.77
2023-03-05T14:09:21.845Z,22.76
2023-03-05T14:11:57.436Z,22.76
2023-03-05T14:14:25.852Z,22.77
2023-03-05T14:16:54.006Z,22.77
2023-03-05T14:19:36.707Z,22.79
2023-03-05T14:22:05.016Z,22.76
2023-03-05T14:24:34.716Z,22.76
2023-03-05T14:27:05.720Z,22.76
2023-03-05T14:29:33.920Z,22.76
2023-03-05T14:32:04.128Z,22.78
2023-03-05T14:34:33.093Z,22.77
2023-03-05T14:37:03.217Z,22.77
2023-03-05T14:39:41.280Z,22.77
2023-03-05T14:42:29.187Z,22.78
2023-03-05T14:44:58.103Z,22.78
2023-03-05T14:47:26.292Z,22.78
2023-03-05T14:49:54.388Z,22.80
2023-03-05T14:52:23.480Z,22.80
2023-03-05T14:54:53.189Z,22.80
2023-03-05T14:57:22.501Z,22.80
2023-03-05T14:59:50.639Z,22.80
2023-03-05T15:02:19.271Z,22.79
2023-03-05T15:04:47.519Z,22.79
2023-03-05T15:07:20.417Z,22.79
2023-03-05T15:09:48.563Z,22.80
2023-03-05T15:12:18.129Z,22.80
2023-03-05T15:14:46.239Z,22.79
2023-03-05T15:17:19.162Z,22.80
2023-03-05T15:19:47.853Z,22.80
2023-03-05T15:22:16.271Z,22.79
2023-03-05T15:24:44.414Z,22.79
2023-03-05T15:27:12.629Z,22.79
2023-03-05T15:29:42.138Z,22.78
2023-03-05T15:32:10.316Z,22.77
2023-03-05T15:34:38.478Z,22.78
2023-03-05T15:37:06.611Z,22.78
2023-03-05T15:39:34.722Z,22.78
2023-03-05T15:42:04.450Z,22.77
2023-03-05T15:44:33.405Z,22.76
2023-03-05T15:47:02.938Z,22.76
2023-03-05T15:49:31.075Z,22.76
2023-03-05T15:51:59.158Z,22.76
2023-03-05T15:54:27.768Z,22.74
2023-03-05T15:56:55.828Z,22.74
2023-03-05T15:59:24.026Z,22.74
2023-03-05T16:01:52.877Z,22.73
2023-03-05T16:04:22.412Z,22.73
2023-03-05T16:06:50.560Z,22.72
2023-03-05T16:09:20.189Z,22.72
2023-03-05T16:11:51.326Z,22.72
2023-03-05T16:14:21.038Z,22.70
2023-03-05T16:16:49.067Z,22.71
2023-03-05T16:19:17.831Z,22.69
2023-03-05T16:21:47.432Z,22.69
2023-03-05T16:24:15.534Z,22.68
2023-03-05T16:26:43.656Z,22.68
2023-03-05T16:29:12.495Z,22.68
2023-03-05T16:31:43.116Z,22.67
2023-03-05T16:34:14.067Z,22.68
2023-03-05T16:36:42.210Z,22.68
2023-03-05T16:39:11.697Z,22.67
2023-03-05T16:41:39.823Z,22.65
2023-03-05T16:44:07.953Z,22.65
2023-03-05T16:46:36.069Z,22.65
2023-03-05T16:49:04.586Z,22.65
2023-03-05T16:51:32.693Z,22.66
2023-03-05T16:54:00.851Z,22.65
2023-03-05T16:56:30.302Z,22.64
2023-03-05T16:58:58.411Z,22.64
2023-03-05T17:01:26.994Z,22.65
2023-03-05T17:03:55.226Z,22.65
2023-03-05T17:06:24.330Z,22.65
2023-03-05T17:08:52.736Z,22.64
2023-03-05T17:11:21.266Z,22.65
2023-03-05T17:13:50.863Z,22.64
2023-03-05T17:16:19.479Z,22.64
2023-03-05T17:18:47.685Z,22.64
2023-03-05T17:21:16.564Z,22.65
2023-03-05T17:23:44.721Z,22.65
2023-03-05T17:26:13.871Z,22.65
2023-03-05T17:28:42.118Z,22.64
2023-03-05T17:31:11.642Z,22.64
2023-03-05T17:33:39.987Z,22.65
2023-03-05T17:36:14.984Z,22.65
2023-03-05T17:38:43.100Z,22.65
2023-03-05T17:41:11.382Z,22.65
2023-03-05T17:43:39.569Z,22.66
2023-03-05T17:46:07.808Z,22.65
2023-03-05T17:48:39.231Z,22.65
2023-03-05T17:51:07.508Z,22.65
2023-03-05T17:53:36.097Z,22.65
2023-03-05T17:56:07.217Z,22.66
2023-03-05T17:58:35.398Z,22.67
2023-03-05T18:01:03.523Z,22.65
2023-03-05T18:03:31.679Z,22.64
2023-03-05T18:06:01.164Z,22.60
2023-03-05T18:08:29.348Z,22.59
2023-03-05T18:10:57.414Z,22.60
2023-03-05T18:13:25.664Z,22.62
2023-03-05T18:15:53.724Z,22.62
2023-03-05T18:18:21.859Z,22.63
2023-03-05T18:20:50.559Z,22.64
2023-03-05T18:23:20.134Z,22.65
2023-03-05T18:25:48.174Z,22.66
2023-03-05T18:28:16.909Z,22.68
2023-03-05T18:30:45.912Z,22.68
2023-03-05T18:33:16.466Z,22.69
2023-03-05T18:35:44.624Z,22.69
2023-03-05T18:38:12.916Z,22.69
2023-03-05T18:40:43.858Z,22.69
2023-03-05T18:43:12.128Z,22.69
2023-03-05T18:45:40.391Z,22.70
2023-03-05T18:48:08.928Z,22.71
2023-03-05T18:50:37.072Z,22.71
2023-03-05T18:53:05.179Z,22.72
2023-03-05T18:55:33.415Z,22.72
2023-03-05T18:58:05.068Z,22.72
2023-03-05T19:00:33.528Z,22.72
2023-03-05T19:03:03.546Z,22.72
2023-03-05T19:05:32.321Z,22.74
2023-03-05T19:08:00.732Z,22.73
2023-03-05T19:10:29.087Z,22.73
2023-03-05T19:13:39.929Z,22.74
2023-03-05T19:16:10.403Z,22.74
2023-03-05T19:19:18.329Z,22.76
2023-03-05T19:21:47.481Z,22.78
2023-03-05T19:24:15.791Z,22.80
2023-03-05T19:26:44.548Z,22.81
2023-03-05T19:29:14.151Z,22.83
2023-03-05T19:31:42.482Z,22.84
2023-03-05T19:34:10.698Z,22.85
2023-03-05T19:36:38.972Z,22.87
2023-03-05T19:39:07.432Z,22.89
2023-03-05T19:41:36.043Z,22.90
2023-03-05T19:44:04.211Z,22.91
2023-03-05T19:46:34.125Z,22.92
2023-03-05T19:49:02.345Z,22.93
2023-03-05T19:51:30.569Z,22.94
2023-03-05T19:53:58.866Z,22.95
2023-03-05T19:56:27.118Z,22.95
2023-03-05T19:58:55.669Z,22.95
2023-03-05T20:01:26.072Z,22.95
2023-03-05T20:03:56.815Z,22.95
2023-03-05T20:06:25.157Z,22.96
2023-03-05T20:08:53.357Z,22.95
2023-03-05T20:11:21.751Z,22.94
2023-03-05T20:13:50.344Z,22.95
2023-03-05T20:16:23.518Z,22.95
2023-03-05T20:18:53.062Z,22.96
2023-03-05T20:21:24.184Z,22.94
2023-03-05T20:23:52.895Z,22.96
2023-03-05T20:26:21.149Z,22.95
2023-03-05T20:28:50.097Z,22.96
2023-03-05T20:31:19.305Z,22.96
2023-03-05T20:33:47.657Z,22.97
2023-03-05T20:36:15.853Z,22.97
2023-03-05T20:38:45.909Z,22.97
2023-03-05T20:41:15.272Z,22.96
2023-03-05T20:43:44.917Z,22.97
2023-03-05T20:46:16.912Z,22.97
2023-03-05T20:48:45.832Z,22.98
2023-03-05T20:51:14.687Z,22.97
2023-03-05T20:53:43.209Z,22.97
2023-03-05T20:56:12.701Z,22.97
2023-03-05T20:58:40.807Z,22.97
2023-03-05T21:01:08.981Z,22.98
2023-03-05T21:03:38.816Z,22.98
2023-03-05T21:06:07.499Z,22.98
2023-03-05T21:08:35.694Z,22.97
2023-03-05T21:11:06.514Z,22.97
2023-03-05T21:13:36.088Z,22.97
2023-03-05T21:16:07.457Z,22.97
2023-03-05T21:18:35.605Z,22.97
2023-03-05T21:21:03.722Z,22.97
2023-03-05T21:23:32.846Z,22.97
2023-03-05T21:26:00.903Z,22.97
2023-03-05T21:28:30.030Z,22.97
2023-03-05T21:30:59.533Z,22.98
2023-03-05T21:33:28.714Z,22.98
2023-03-05T21:35:58.137Z,22.97
2023-03-05T21:38:29.845Z,22.98
2023-03-05T21:40:58.959Z,22.99
2023-03-05T21:43:27.251Z,22.99
2023-03-05T21:45:57.217Z,22.99
2023-03-05T21:48:26.916Z,22.99
2023-03-05T21:50:55.508Z,22.98
2023-03-05T21:53:23.736Z,22.98
2023-03-05T21:56:25.165Z,22.99
2023-03-05T21:58:53.430Z,22.99
2023-03-05T22:01:22.188Z,22.99
2023-03-05T22:03:51.837Z,22.99
2023-03-05T22:06:22.555Z,22.99
2023-03-05T22:08:51.346Z,22.99
2023-03-05T22:11:20.869Z,22.99
2023-03-05T22:13:49.144Z,22.99
2023-03-05T22:16:24.351Z,22.99
2023-03-05T22:18:54.097Z,22.99
2023-03-05T22:21:23.206Z,23.00
2023-03-05T22:23:51.325Z,22.99
2023-03-05T22:26:19.411Z,22.99
2023-03-05T22:28:47.556Z,22.98
2023-03-05T22:31:21.065Z,22.99
2023-03-05T22:33:49.240Z,22.99
2023-03-05T22:36:18.683Z,22.98
2023-03-05T22:38:47.002Z,22.98
2023-03-05T22:41:15.988Z,22.98
2023-03-05T22:43:44.198Z,22.97
2023-03-05T22:46:12.759Z,22.97
2023-03-05T22:48:41.091Z,22.97
2023-03-05T22:51:09.467Z,22.96
2023-03-05T22:53:39.004Z,22.95
2023-03-05T22:56:08.163Z,22.94
2023-03-05T22:58:36.264Z,22.94
2023-03-05T23:01:04.587Z,22.93
2023-03-05T23:03:32.784Z,22.94
2023-03-05T23:06:00.956Z,22.92
2023-03-05T23:08:29.042Z,22.92
2023-03-05T23:10:58.543Z,22.91
2023-03-05T23:13:26.651Z,22.91
2023-03-05T23:15:54.785Z,22.90
2023-03-05T23:18:22.899Z,22.91
2023-03-05T23:20:53.630Z,22.90
2023-03-05T23:23:21.800Z,22.90
2023-03-05T23:25:51.206Z,22.88
2023-03-05T23:28:20.781Z,22.89
2023-03-05T23:30:48.931Z,22.87
2023-03-05T23:33:17.854Z,22.87
2023-03-05T23:35:51.044Z,22.87
2023-03-05T23:38:19.148Z,22.86
2023-03-05T23:40:48.097Z,22.86
2023-03-05T23:43:16.428Z,22.85
2023-03-05T23:45:48.010Z,22.84
2023-03-05T23:48:16.226Z,22.83
2023-03-05T23:50:47.538Z,22.83
2023-03-05T23:53:17.233Z,22.83
2023-03-05T23:55:45.749Z,22.81
2023-03-05T23:58:14.226Z,22.81
